KPTW

Heritage Field Airport

Pottstown, Pennsylvania, USA
METAR KPTW 191654Z AUTO 07005KT 8SM -RA OVC014 20/19 A3000 RMK AO2 RAE1556B18 SLP156 P0000 T02000194
Observed Flight Rules
Aug-19 @ 16:54 UTC (18 minutes ago) Marginal Visual Flight Rules
Wind Visibility Clouds Conditions
70° at 5 knots 8 miles
  • Overcast at 1,400' AGL
  • Light Rain
Temperatures Readings Precipitation
Current 20°C / 68°F
Dewpoint 19°C / 66°F
Humidity 94%
Altimeter 30" Hg
Pressure 1015.6 hPa
Elevation 92
Current Rain 0.005
METAR KPTW 191654Z AUTO 07005KT 8SM -RA OVC014 20/19 A3000 RMK AO2 RAE1556B18 SLP156 P0000 T02000194
Observed Flight Rules
Aug-19 @ 16:54 UTC
(18 minutes ago)
MVFR
Wind Visibility
70° at 5 knots 8 miles
Clouds
  • Overcast at 1,400' AGL
Conditions
  • Light Rain
Temperature Dewpoint
20°C / 68°F 19°C / 66°F
Humidity Altimeter Pressure
94% 30" Hg 1015.6 hPa
Current Rain
0.005